createdAt,value
2022-12-31T00:01:43.879Z,13.17
2022-12-31T00:04:13.650Z,10.80
2022-12-31T00:06:43.278Z,13.00
2022-12-31T00:09:14.501Z,10.47
2022-12-31T00:11:44.816Z,12.23
2022-12-31T00:14:14.833Z,11.70
2022-12-31T00:16:45.091Z,11.07
2022-12-31T00:19:14.920Z,11.63
2022-12-31T00:21:46.179Z,10.63
2022-12-31T00:24:18.194Z,12.43
2022-12-31T00:26:48.107Z,11.50
2022-12-31T00:29:17.852Z,9.20
2022-12-31T00:31:47.503Z,11.37
2022-12-31T00:34:17.288Z,8.47
2022-12-31T00:36:47.555Z,11.27
2022-12-31T00:39:20.127Z,9.47
2022-12-31T00:41:49.857Z,12.37
2022-12-31T00:44:20.013Z,11.63
2022-12-31T00:46:50.010Z,13.00
2022-12-31T00:49:19.681Z,10.10
2022-12-31T00:51:49.541Z,10.43
2022-12-31T00:54:20.723Z,8.20
2022-12-31T00:56:50.595Z,11.73
2022-12-31T00:59:20.822Z,9.97
2022-12-31T01:01:51.300Z,9.03
2022-12-31T01:04:23.077Z,9.53
2022-12-31T01:06:52.818Z,12.37
2022-12-31T01:09:24.226Z,10.40
2022-12-31T01:11:54.655Z,8.83
2022-12-31T01:14:24.571Z,7.90
2022-12-31T01:16:55.292Z,8.80
2022-12-31T01:19:27.943Z,9.37
2022-12-31T01:21:58.722Z,9.97
2022-12-31T01:24:30.154Z,9.77
2022-12-31T01:26:59.812Z,9.70
2022-12-31T01:29:29.772Z,20.50
2022-12-31T01:31:59.861Z,12.43
2022-12-31T01:34:30.418Z,14.10
2022-12-31T01:37:00.114Z,14.40
2022-12-31T01:39:31.018Z,12.27
2022-12-31T01:42:00.806Z,16.10
2022-12-31T01:44:50.314Z,14.63
2022-12-31T01:47:25.519Z,15.40
2022-12-31T01:50:01.075Z,17.27
2022-12-31T01:52:33.945Z,19.43
2022-12-31T01:55:08.643Z,18.90
2022-12-31T01:57:39.319Z,18.83
2022-12-31T02:00:11.260Z,17.40
2022-12-31T02:02:41.387Z,14.50
2022-12-31T02:05:17.524Z,15.77
2022-12-31T02:07:47.786Z,16.67
2022-12-31T02:10:19.458Z,15.93
2022-12-31T02:12:49.570Z,14.30
2022-12-31T02:15:20.598Z,13.33
2022-12-31T02:17:55.255Z,14.80
2022-12-31T02:20:43.075Z,14.33
2022-12-31T02:23:35.102Z,14.37
2022-12-31T02:26:25.146Z,15.50
2022-12-31T02:29:17.931Z,14.03
2022-12-31T02:31:51.779Z,15.10
2022-12-31T02:34:27.028Z,12.40
2022-12-31T02:37:00.608Z,14.53
2022-12-31T02:39:31.441Z,14.80
2022-12-31T02:42:02.449Z,14.83
2022-12-31T02:44:34.546Z,15.40
2022-12-31T02:47:16.512Z,13.53
2022-12-31T02:49:56.229Z,13.03
2022-12-31T02:52:33.437Z,13.43
2022-12-31T02:55:09.791Z,16.77
2022-12-31T02:57:43.594Z,17.13
2022-12-31T03:00:32.344Z,13.00
2022-12-31T03:03:04.651Z,16.33
2022-12-31T03:05:37.854Z,17.37
2022-12-31T03:08:08.224Z,13.40
2022-12-31T03:10:39.047Z,12.87
2022-12-31T03:13:07.882Z,14.43
2022-12-31T03:15:37.494Z,13.40
2022-12-31T03:18:10.169Z,13.83
2022-12-31T03:20:59.425Z,17.07
2022-12-31T03:23:31.685Z,17.10
2022-12-31T03:26:01.820Z,16.20
2022-12-31T03:28:32.712Z,13.93
2022-12-31T03:31:03.603Z,13.73
2022-12-31T03:33:37.043Z,13.50
2022-12-31T03:36:08.578Z,12.70
2022-12-31T03:38:38.416Z,14.00
2022-12-31T03:41:11.159Z,12.07
2022-12-31T03:43:40.939Z,12.13
2022-12-31T03:46:10.643Z,14.53
2022-12-31T03:48:41.759Z,12.17
2022-12-31T03:51:14.175Z,13.73
2022-12-31T03:53:43.922Z,12.67
2022-12-31T03:56:13.910Z,11.17
2022-12-31T03:58:44.269Z,9.83
2022-12-31T04:01:14.564Z,15.07
2022-12-31T04:03:46.153Z,12.33
2022-12-31T04:06:16.904Z,13.50
2022-12-31T04:08:46.529Z,18.63
2022-12-31T04:11:20.768Z,15.10
2022-12-31T04:13:51.253Z,14.10
2022-12-31T04:16:20.941Z,14.60
2022-12-31T04:18:52.041Z,12.67
2022-12-31T04:21:21.769Z,15.47
2022-12-31T04:23:51.460Z,13.13
2022-12-31T04:26:21.004Z,12.83
2022-12-31T04:28:51.119Z,13.00
2022-12-31T04:31:21.272Z,17.03
2022-12-31T04:33:52.367Z,14.90
2022-12-31T04:36:22.304Z,14.63
2022-12-31T04:38:52.496Z,11.33
2022-12-31T04:41:22.539Z,10.33
2022-12-31T04:43:53.879Z,13.80
2022-12-31T04:46:24.390Z,15.07
2022-12-31T04:48:55.606Z,17.10
2022-12-31T04:51:26.154Z,13.30
2022-12-31T04:53:56.326Z,12.10
2022-12-31T04:56:26.357Z,14.30
2022-12-31T04:58:56.514Z,10.77
2022-12-31T05:01:26.728Z,9.60
2022-12-31T05:03:58.811Z,10.00
2022-12-31T05:06:28.594Z,11.60
2022-12-31T05:08:58.186Z,12.10
2022-12-31T05:11:28.643Z,11.97
2022-12-31T05:13:58.570Z,12.03
2022-12-31T05:16:28.788Z,13.00
2022-12-31T05:19:00.019Z,9.50
2022-12-31T05:21:29.434Z,9.20
2022-12-31T05:23:59.153Z,10.57
2022-12-31T05:26:29.530Z,9.33
2022-12-31T05:29:00.549Z,9.37
2022-12-31T05:31:30.198Z,9.90
2022-12-31T05:34:01.599Z,11.93
2022-12-31T05:36:31.110Z,8.37
2022-12-31T05:39:00.919Z,9.87
2022-12-31T05:41:31.028Z,10.20
2022-12-31T05:44:00.954Z,7.33
2022-12-31T05:46:30.723Z,7.90
2022-12-31T05:49:01.944Z,9.87
2022-12-31T05:51:31.939Z,7.30
2022-12-31T05:54:01.398Z,8.10
2022-12-31T05:56:31.244Z,7.60
2022-12-31T05:59:00.965Z,7.60
2022-12-31T06:01:30.552Z,6.73
2022-12-31T06:04:01.810Z,6.47
2022-12-31T06:06:31.461Z,7.07
2022-12-31T06:09:01.338Z,6.90
2022-12-31T06:11:30.679Z,6.50
2022-12-31T06:14:00.330Z,7.07
2022-12-31T06:16:30.215Z,7.73
2022-12-31T06:19:02.523Z,5.27
2022-12-31T06:21:32.439Z,6.60
2022-12-31T06:24:02.782Z,6.90
2022-12-31T06:26:32.875Z,7.87
2022-12-31T06:29:02.638Z,11.20
2022-12-31T06:31:32.636Z,9.80
2022-12-31T06:34:03.721Z,8.50
2022-12-31T06:36:33.505Z,9.53
2022-12-31T06:39:04.018Z,12.07
2022-12-31T06:41:33.619Z,8.80
2022-12-31T06:44:03.175Z,8.27
2022-12-31T06:46:32.919Z,10.63
2022-12-31T06:49:04.224Z,8.50
2022-12-31T06:51:34.787Z,11.10
2022-12-31T06:54:04.510Z,7.67
2022-12-31T06:56:35.536Z,11.97
2022-12-31T06:59:06.805Z,9.30
2022-12-31T07:01:45.761Z,17.17
2022-12-31T07:04:32.585Z,18.07
2022-12-31T07:07:09.153Z,16.90
2022-12-31T07:09:41.929Z,14.60
2022-12-31T07:12:17.937Z,10.40
2022-12-31T07:14:50.769Z,10.90
2022-12-31T07:17:27.876Z,11.23
2022-12-31T07:20:03.120Z,9.60
2022-12-31T07:22:33.651Z,10.47
2022-12-31T07:25:06.758Z,9.13
2022-12-31T07:27:56.420Z,10.60
2022-12-31T07:30:30.711Z,9.30
2022-12-31T07:33:23.964Z,11.27
2022-12-31T07:36:02.834Z,10.40
2022-12-31T07:38:36.558Z,8.93
2022-12-31T07:41:12.624Z,9.23
2022-12-31T07:43:50.559Z,11.47
2022-12-31T07:46:28.415Z,12.70
2022-12-31T07:48:59.307Z,16.27
2022-12-31T07:51:32.189Z,17.10
2022-12-31T07:54:02.153Z,21.87
2022-12-31T07:56:32.928Z,22.33
2022-12-31T07:59:22.540Z,24.27
2022-12-31T08:02:00.583Z,27.63
2022-12-31T08:04:35.895Z,16.80
2022-12-31T08:07:17.179Z,15.73
2022-12-31T08:09:51.954Z,14.07
2022-12-31T08:12:23.869Z,11.27
2022-12-31T08:14:54.124Z,12.40
2022-12-31T08:17:24.592Z,15.67
2022-12-31T08:19:55.229Z,13.50
2022-12-31T08:22:43.932Z,11.50
2022-12-31T08:25:21.380Z,13.40
2022-12-31T08:27:59.746Z,11.70
2022-12-31T08:30:37.422Z,12.03
2022-12-31T08:33:14.764Z,14.67
2022-12-31T08:36:03.197Z,10.57
2022-12-31T08:38:52.631Z,11.97
2022-12-31T08:41:29.319Z,12.30
2022-12-31T08:44:09.264Z,12.00
2022-12-31T08:46:42.949Z,11.63
2022-12-31T08:49:15.102Z,12.27
2022-12-31T08:51:45.494Z,10.73
2022-12-31T08:54:18.560Z,13.77
2022-12-31T08:56:53.364Z,11.20
2022-12-31T08:59:37.138Z,11.10
2022-12-31T09:02:48.676Z,11.17
2022-12-31T09:05:24.427Z,10.40
2022-12-31T09:08:05.032Z,12.67
2022-12-31T09:10:42.623Z,13.97
2022-12-31T09:13:17.739Z,12.93
2022-12-31T09:15:53.590Z,12.93
2022-12-31T09:18:29.737Z,14.40
2022-12-31T09:21:03.428Z,12.73
2022-12-31T09:23:34.364Z,15.40
2022-12-31T09:26:13.157Z,14.20
2022-12-31T09:28:49.449Z,13.97
2022-12-31T09:31:23.565Z,13.13
2022-12-31T09:33:59.580Z,12.87
2022-12-31T09:36:32.909Z,15.63
2022-12-31T09:39:06.805Z,12.50
2022-12-31T09:42:07.125Z,13.63
2022-12-31T09:45:11.364Z,16.43
2022-12-31T09:48:10.039Z,13.80
2022-12-31T09:50:56.397Z,14.47
2022-12-31T09:53:41.734Z,12.77
2022-12-31T09:56:17.949Z,12.93
2022-12-31T09:58:53.950Z,12.20
2022-12-31T10:01:38.019Z,15.73
2022-12-31T10:04:31.959Z,16.00
2022-12-31T10:07:16.006Z,18.20
2022-12-31T10:10:07.860Z,18.57
2022-12-31T10:13:09.985Z,18.57
2022-12-31T10:15:59.962Z,18.30
2022-12-31T10:18:44.093Z,20.00
2022-12-31T10:21:27.431Z,19.30
2022-12-31T10:24:19.689Z,18.07
2022-12-31T10:27:14.526Z,18.20
2022-12-31T10:29:48.880Z,18.67
2022-12-31T10:32:26.326Z,20.33
2022-12-31T10:35:12.463Z,18.20
2022-12-31T10:37:46.275Z,19.30
2022-12-31T10:40:27.645Z,20.00
2022-12-31T10:43:43.232Z,34.87
2022-12-31T10:46:48.529Z,33.97
2022-12-31T10:50:00.422Z,19.63
2022-12-31T10:56:01.908Z,18.40
2022-12-31T10:59:07.430Z,19.37
2022-12-31T11:01:44.922Z,17.80
2022-12-31T11:04:50.949Z,19.70
2022-12-31T11:07:48.893Z,17.63
2022-12-31T11:10:51.455Z,17.40
2022-12-31T11:13:53.532Z,23.17
2022-12-31T11:16:35.449Z,22.17
2022-12-31T11:19:12.143Z,20.17
2022-12-31T11:21:59.414Z,20.33
2022-12-31T11:24:39.453Z,18.50
2022-12-31T11:27:22.551Z,22.50
2022-12-31T11:30:08.036Z,20.13
2022-12-31T11:32:52.214Z,18.17
2022-12-31T11:35:34.008Z,15.93
2022-12-31T11:38:14.849Z,17.80
2022-12-31T11:41:01.977Z,17.90
2022-12-31T11:43:38.729Z,19.10
2022-12-31T11:46:27.689Z,18.50
2022-12-31T11:49:26.520Z,18.37
2022-12-31T11:52:28.200Z,24.73
2022-12-31T11:55:16.107Z,18.27
2022-12-31T11:57:50.596Z,18.17
2022-12-31T12:00:22.518Z,20.50
2022-12-31T12:02:57.904Z,15.73
2022-12-31T12:05:28.589Z,17.57
2022-12-31T12:07:59.363Z,14.93
2022-12-31T12:10:36.074Z,14.10
2022-12-31T12:13:15.691Z,13.03
2022-12-31T12:15:47.985Z,19.23
2022-12-31T12:18:29.511Z,19.37
2022-12-31T12:21:12.045Z,16.30
2022-12-31T12:23:43.018Z,14.53
2022-12-31T12:26:29.015Z,21.03
2022-12-31T12:29:10.131Z,17.37
2022-12-31T12:31:40.389Z,14.50
2022-12-31T12:34:25.296Z,15.67
2022-12-31T12:36:55.298Z,18.13
2022-12-31T12:39:27.904Z,19.47
2022-12-31T12:42:05.859Z,16.30
2022-12-31T12:44:36.082Z,15.90
2022-12-31T12:47:08.221Z,15.57
2022-12-31T12:49:43.673Z,17.87
2022-12-31T12:52:39.948Z,14.83
2022-12-31T12:55:18.913Z,14.07
2022-12-31T12:57:52.738Z,17.30
2022-12-31T13:00:25.127Z,17.60
2022-12-31T13:03:36.754Z,16.50
2022-12-31T13:06:27.501Z,16.20
2022-12-31T13:09:14.918Z,19.90
2022-12-31T13:11:52.241Z,14.63
2022-12-31T13:14:29.068Z,20.80
2022-12-31T13:17:05.088Z,17.20
2022-12-31T13:19:38.694Z,17.63
2022-12-31T13:22:13.693Z,23.93
2022-12-31T13:24:55.908Z,16.67
2022-12-31T13:27:32.013Z,18.30
2022-12-31T13:30:04.248Z,18.60
2022-12-31T13:32:40.642Z,20.60
2022-12-31T13:35:25.853Z,16.97
2022-12-31T13:38:05.688Z,15.00
2022-12-31T13:40:46.535Z,15.10
2022-12-31T13:43:20.690Z,15.47
2022-12-31T13:46:02.855Z,25.30
2022-12-31T13:48:37.107Z,17.47
2022-12-31T13:51:13.622Z,20.00
2022-12-31T13:53:49.124Z,14.30
2022-12-31T13:56:22.319Z,13.10
2022-12-31T13:58:56.192Z,14.10
2022-12-31T14:01:33.830Z,16.10
2022-12-31T14:04:09.424Z,19.17
2022-12-31T14:06:46.913Z,14.17
2022-12-31T14:09:21.913Z,13.13
2022-12-31T14:12:15.735Z,12.50
2022-12-31T14:14:50.813Z,14.63
2022-12-31T14:17:26.627Z,14.67
2022-12-31T14:20:04.385Z,12.53
2022-12-31T14:22:40.315Z,13.60
2022-12-31T14:25:21.058Z,14.57
2022-12-31T14:27:52.379Z,14.23
2022-12-31T14:30:23.931Z,13.80
2022-12-31T14:33:27.095Z,13.77
2022-12-31T14:36:19.182Z,14.77
2022-12-31T14:39:07.515Z,14.17
2022-12-31T14:41:52.676Z,14.37
2022-12-31T14:44:33.814Z,14.37
2022-12-31T14:47:13.030Z,11.73
2022-12-31T14:49:50.274Z,13.40
2022-12-31T14:52:25.665Z,13.03
2022-12-31T14:55:04.474Z,15.60
2022-12-31T14:58:17.267Z,15.37
2022-12-31T15:00:34.331Z,16.20
2022-12-31T15:03:06.018Z,13.80
2022-12-31T15:05:37.698Z,11.90
2022-12-31T15:08:23.994Z,12.27
2022-12-31T15:11:07.576Z,12.37
2022-12-31T15:13:48.748Z,14.90
2022-12-31T15:16:30.495Z,14.37
2022-12-31T15:19:44.805Z,16.30
2022-12-31T15:22:27.488Z,16.07
2022-12-31T15:24:57.245Z,21.17
2022-12-31T15:27:36.283Z,18.97
2022-12-31T15:30:09.853Z,19.80
2022-12-31T15:32:43.167Z,26.40
2022-12-31T15:35:28.219Z,27.60
2022-12-31T15:38:03.068Z,29.30
2022-12-31T15:40:33.126Z,33.43
2022-12-31T15:43:06.589Z,35.10
2022-12-31T15:45:40.069Z,32.07
2022-12-31T15:48:15.748Z,36.20
2022-12-31T15:50:47.067Z,35.53
2022-12-31T15:53:28.346Z,36.67
2022-12-31T15:56:00.566Z,33.43
2022-12-31T15:58:33.229Z,37.30
2022-12-31T16:01:10.654Z,34.00
2022-12-31T16:03:45.670Z,30.90
2022-12-31T16:06:17.238Z,29.27
2022-12-31T16:08:50.043Z,31.80
2022-12-31T16:11:20.556Z,30.30
2022-12-31T16:13:52.553Z,31.47
2022-12-31T16:16:25.894Z,36.97
2022-12-31T16:18:57.211Z,41.50
2022-12-31T16:21:38.068Z,52.73
2022-12-31T16:24:22.985Z,66.23
2022-12-31T16:26:55.153Z,63.57
2022-12-31T16:29:27.001Z,51.33
2022-12-31T16:31:58.400Z,43.77
2022-12-31T16:34:29.147Z,40.07
2022-12-31T16:37:01.270Z,42.03
2022-12-31T16:39:33.164Z,36.60
2022-12-31T16:42:21.033Z,37.33
2022-12-31T16:44:52.506Z,33.83
2022-12-31T16:47:25.677Z,30.53
2022-12-31T16:50:00.314Z,27.70
2022-12-31T16:52:33.863Z,26.00
2022-12-31T16:55:04.331Z,23.67
2022-12-31T16:57:34.673Z,22.53
2022-12-31T17:00:07.316Z,21.83
2022-12-31T17:02:41.404Z,17.93
2022-12-31T17:05:21.014Z,18.93
2022-12-31T17:07:50.973Z,18.70
2022-12-31T17:10:25.749Z,19.80
2022-12-31T17:15:48.722Z,18.23
2022-12-31T17:18:22.295Z,18.00
2022-12-31T17:20:54.019Z,17.63
2022-12-31T17:23:28.460Z,16.40
2022-12-31T17:26:03.120Z,19.23
2022-12-31T17:28:39.820Z,17.33
2022-12-31T17:31:32.959Z,17.77
2022-12-31T17:34:24.984Z,19.80
2022-12-31T17:37:02.563Z,18.70
2022-12-31T17:39:45.435Z,18.67
2022-12-31T17:42:17.351Z,20.40
2022-12-31T17:44:47.170Z,21.00
2022-12-31T17:47:17.247Z,19.17
2022-12-31T17:49:48.852Z,19.87
2022-12-31T17:52:19.279Z,18.67
2022-12-31T17:54:49.825Z,19.80
2022-12-31T17:57:29.133Z,19.60
2022-12-31T17:59:59.124Z,20.93
2022-12-31T18:02:30.776Z,19.27
2022-12-31T18:05:07.500Z,18.20
2022-12-31T18:07:37.804Z,17.97
2022-12-31T18:10:08.673Z,18.80
2022-12-31T18:12:38.789Z,19.37
2022-12-31T18:15:09.569Z,22.37
2022-12-31T18:17:39.282Z,20.50
2022-12-31T18:20:12.311Z,20.40
2022-12-31T18:22:44.258Z,21.43
2022-12-31T18:25:17.717Z,21.20
2022-12-31T18:27:48.240Z,21.33
2022-12-31T18:30:18.762Z,19.30
2022-12-31T18:32:49.182Z,21.30
2022-12-31T18:38:16.059Z,21.70
2022-12-31T18:40:50.811Z,21.83
2022-12-31T18:43:21.524Z,24.93
2022-12-31T18:45:52.304Z,30.83
2022-12-31T18:48:22.174Z,29.57
2022-12-31T18:50:54.081Z,33.90
2022-12-31T18:53:25.300Z,35.30
2022-12-31T18:55:57.187Z,30.30
2022-12-31T18:58:27.488Z,31.07
2022-12-31T19:00:57.844Z,29.90
2022-12-31T19:03:28.955Z,31.83
2022-12-31T19:06:00.711Z,33.37
2022-12-31T19:08:33.174Z,32.73
2022-12-31T19:11:03.968Z,29.60
2022-12-31T19:13:33.643Z,31.20
2022-12-31T19:16:03.440Z,30.17
2022-12-31T19:18:33.586Z,26.97
2022-12-31T19:21:05.506Z,26.27
2022-12-31T19:23:35.631Z,23.40
2022-12-31T19:26:05.364Z,26.30
2022-12-31T19:28:35.457Z,26.33
2022-12-31T19:31:05.755Z,26.33
2022-12-31T19:33:36.246Z,29.70
2022-12-31T19:36:11.646Z,31.00
2022-12-31T19:38:41.110Z,33.10
2022-12-31T19:41:17.540Z,30.70
2022-12-31T19:43:49.087Z,31.80
2022-12-31T19:46:20.302Z,34.27
2022-12-31T19:48:50.357Z,31.13
2022-12-31T19:51:23.031Z,35.77
2022-12-31T19:53:52.714Z,31.70
2022-12-31T19:56:22.872Z,31.20
2022-12-31T19:58:52.547Z,31.60
2022-12-31T20:01:24.015Z,32.50
2022-12-31T20:03:54.107Z,29.27
2022-12-31T20:06:26.295Z,31.40
2022-12-31T20:08:56.321Z,33.40
2022-12-31T20:11:27.106Z,27.80
2022-12-31T20:13:57.069Z,28.60
2022-12-31T20:16:30.284Z,28.90
2022-12-31T20:19:00.529Z,26.73
2022-12-31T20:21:32.682Z,24.93
2022-12-31T20:24:03.035Z,25.17
2022-12-31T20:26:33.034Z,25.30
2022-12-31T20:29:03.023Z,25.77
2022-12-31T20:31:33.430Z,25.60
2022-12-31T20:34:03.254Z,27.30
2022-12-31T20:36:34.256Z,26.80
2022-12-31T20:39:04.299Z,29.30
2022-12-31T20:41:33.806Z,29.67
2022-12-31T20:44:03.834Z,26.70
2022-12-31T20:46:34.137Z,28.87
2022-12-31T20:49:05.957Z,32.70
2022-12-31T20:51:37.374Z,31.90
2022-12-31T20:54:08.543Z,38.53
2022-12-31T20:56:39.698Z,41.10
2022-12-31T20:59:11.449Z,35.33
2022-12-31T21:02:19.353Z,35.40
2022-12-31T21:04:31.303Z,34.03
2022-12-31T21:07:02.514Z,34.90
2022-12-31T21:09:32.048Z,30.90
2022-12-31T21:12:19.217Z,35.60
2022-12-31T21:14:49.649Z,31.70
2022-12-31T21:17:19.715Z,31.20
2022-12-31T21:19:50.000Z,31.40
2022-12-31T21:22:21.542Z,41.10
2022-12-31T21:24:51.273Z,41.90
2022-12-31T21:27:20.969Z,40.50
2022-12-31T21:30:17.805Z,37.20
2022-12-31T21:32:41.218Z,40.30
2022-12-31T21:35:42.409Z,36.33
2022-12-31T21:38:05.018Z,37.60
2022-12-31T21:40:35.554Z,35.07
2022-12-31T21:43:05.603Z,37.53
2022-12-31T21:45:36.441Z,37.80
2022-12-31T21:48:25.362Z,34.90
2022-12-31T21:50:57.019Z,29.60
2022-12-31T21:53:36.197Z,27.03
2022-12-31T21:56:10.871Z,26.13
2022-12-31T21:58:42.359Z,24.60
2022-12-31T22:01:34.172Z,24.40
2022-12-31T22:04:04.496Z,31.37
2022-12-31T22:06:35.721Z,27.13
2022-12-31T22:09:07.178Z,25.90
2022-12-31T22:11:37.632Z,24.27
2022-12-31T22:14:07.165Z,27.33
2022-12-31T22:16:37.769Z,24.00
2022-12-31T22:19:07.499Z,27.17
2022-12-31T22:21:37.739Z,28.90
2022-12-31T22:24:10.280Z,45.53
2022-12-31T22:26:46.337Z,38.97
2022-12-31T22:29:17.269Z,41.83
2022-12-31T22:31:47.037Z,40.30
2022-12-31T22:34:17.084Z,36.93
2022-12-31T22:36:47.154Z,42.17
2022-12-31T22:39:43.875Z,34.03
2022-12-31T22:42:12.363Z,33.80
2022-12-31T22:44:42.610Z,27.67
2022-12-31T22:47:12.095Z,31.57
2022-12-31T22:49:42.129Z,32.33
2022-12-31T22:52:11.829Z,28.00
2022-12-31T22:54:43.618Z,33.80
2022-12-31T22:57:19.672Z,29.97
2022-12-31T22:59:51.595Z,27.97
2022-12-31T23:02:21.609Z,29.57
2022-12-31T23:04:52.244Z,27.73
2022-12-31T23:07:22.418Z,26.50
2022-12-31T23:10:11.279Z,30.50
2022-12-31T23:12:41.669Z,30.07
2022-12-31T23:15:29.799Z,39.57
2022-12-31T23:18:17.119Z,46.43
2022-12-31T23:21:04.485Z,67.13
2022-12-31T23:23:34.329Z,92.80
2022-12-31T23:26:07.130Z,111.53
2022-12-31T23:28:37.216Z,94.83
2022-12-31T23:31:08.284Z,88.80
2022-12-31T23:33:38.536Z,61.90
2022-12-31T23:36:09.617Z,95.27
2022-12-31T23:38:39.670Z,113.53
2022-12-31T23:41:25.710Z,97.30
2022-12-31T23:43:56.709Z,114.70
2022-12-31T23:46:26.584Z,137.73
2022-12-31T23:48:56.903Z,125.07
2022-12-31T23:51:26.883Z,120.23
2022-12-31T23:53:57.984Z,96.47
2022-12-31T23:56:29.485Z,87.13
2022-12-31T23:59:00.597Z,66.40
